createdAt,value
2023-02-16T00:00:16.735Z,1.80
2023-02-16T00:02:45.018Z,1.80
2023-02-16T00:05:18.348Z,1.80
2023-02-16T00:07:47.769Z,1.80
2023-02-16T00:10:15.913Z,1.90
2023-02-16T00:13:01.393Z,2.00
2023-02-16T00:15:29.501Z,2.10
2023-02-16T00:17:59.287Z,2.10
2023-02-16T00:20:31.232Z,2.10
2023-02-16T00:23:00.687Z,2.10
2023-02-16T00:25:28.687Z,2.20
2023-02-16T00:27:56.735Z,2.20
2023-02-16T00:30:24.767Z,2.30
2023-02-16T00:32:52.864Z,2.30
2023-02-16T00:35:21.712Z,2.30
2023-02-16T00:37:50.242Z,2.30
2023-02-16T00:40:19.671Z,2.40
2023-02-16T00:42:48.387Z,2.60
2023-02-16T00:45:17.387Z,2.70
2023-02-16T00:47:47.780Z,2.70
2023-02-16T00:50:18.956Z,2.60
2023-02-16T00:52:48.356Z,2.50
2023-02-16T00:55:17.286Z,2.40
2023-02-16T00:57:49.791Z,2.30
2023-02-16T01:00:19.988Z,2.20
2023-02-16T01:02:48.820Z,2.10
2023-02-16T01:05:16.837Z,2.20
2023-02-16T01:08:02.595Z,2.30
2023-02-16T01:10:48.149Z,2.30
2023-02-16T01:13:17.912Z,2.30
2023-02-16T01:15:46.265Z,2.10
2023-02-16T01:18:14.568Z,2.00
2023-02-16T01:20:42.597Z,1.90
2023-02-16T01:23:11.239Z,1.80
2023-02-16T01:25:42.692Z,1.90
2023-02-16T01:28:17.436Z,2.00
2023-02-16T01:30:46.845Z,2.00
2023-02-16T01:33:14.935Z,2.00
2023-02-16T01:35:43.188Z,2.00
2023-02-16T01:38:18.621Z,2.10
2023-02-16T01:40:52.664Z,2.20
2023-02-16T01:43:21.654Z,2.20
2023-02-16T01:45:55.514Z,2.30
2023-02-16T01:48:25.761Z,2.30
2023-02-16T01:50:57.137Z,2.40
2023-02-16T01:53:31.924Z,2.60
2023-02-16T01:56:02.261Z,2.60
2023-02-16T01:58:35.235Z,2.70
2023-02-16T02:01:23.100Z,2.60
2023-02-16T02:04:09.976Z,2.50
2023-02-16T02:06:38.506Z,2.50
2023-02-16T02:09:09.015Z,2.50
2023-02-16T02:11:39.654Z,2.40
2023-02-16T02:14:09.904Z,2.30
2023-02-16T02:16:38.115Z,2.30
2023-02-16T02:19:07.751Z,2.40
2023-02-16T02:22:07.636Z,2.10
2023-02-16T02:24:52.346Z,2.10
2023-02-16T02:27:23.757Z,1.90
2023-02-16T02:30:01.599Z,2.10
2023-02-16T02:32:34.301Z,1.90
2023-02-16T02:35:09.054Z,1.80
2023-02-16T02:37:41.655Z,1.60
2023-02-16T02:40:12.696Z,1.60
2023-02-16T02:42:46.827Z,1.60
2023-02-16T02:45:17.724Z,1.80
2023-02-16T02:47:47.169Z,1.80
2023-02-16T02:51:03.165Z,1.80
2023-02-16T02:53:31.980Z,1.90
2023-02-16T02:56:18.060Z,2.00
2023-02-16T02:59:02.921Z,2.20
2023-02-16T03:01:31.601Z,2.30
2023-02-16T03:04:00.430Z,2.40
2023-02-16T03:06:29.526Z,2.40
2023-02-16T03:09:01.002Z,2.50
2023-02-16T03:11:48.251Z,2.60
2023-02-16T03:14:19.048Z,2.70
2023-02-16T03:17:05.267Z,2.60
2023-02-16T03:19:51.173Z,2.50
2023-02-16T03:22:37.828Z,2.60
2023-02-16T03:25:32.144Z,2.40
2023-02-16T03:28:19.228Z,2.50
2023-02-16T03:30:51.794Z,2.50
2023-02-16T03:33:20.089Z,2.50
2023-02-16T03:35:48.602Z,2.40
2023-02-16T03:38:18.067Z,2.30
2023-02-16T03:40:46.899Z,2.30
2023-02-16T03:43:14.878Z,2.30
2023-02-16T03:45:43.833Z,2.30
2023-02-16T03:48:13.613Z,2.30
2023-02-16T03:50:41.635Z,2.20
2023-02-16T03:53:09.632Z,2.20
2023-02-16T03:55:38.847Z,2.20
2023-02-16T03:58:07.536Z,2.20
2023-02-16T04:00:36.298Z,2.10
2023-02-16T04:03:04.725Z,2.00
2023-02-16T04:05:34.429Z,2.10
2023-02-16T04:08:02.493Z,2.30
2023-02-16T04:10:30.510Z,2.30
2023-02-16T04:12:57.742Z,2.40
2023-02-16T04:15:28.087Z,2.50
2023-02-16T04:17:56.189Z,2.60
2023-02-16T04:20:25.673Z,2.40
2023-02-16T04:22:55.204Z,2.20
2023-02-16T04:25:24.075Z,2.10
2023-02-16T04:27:52.719Z,2.30
2023-02-16T04:30:22.053Z,2.20
2023-02-16T04:32:50.123Z,2.40
2023-02-16T04:35:18.352Z,2.30
2023-02-16T04:37:46.459Z,2.30
2023-02-16T04:40:16.787Z,2.40
2023-02-16T04:42:45.380Z,2.40
2023-02-16T04:45:13.731Z,2.50
2023-02-16T04:47:41.716Z,2.50
2023-02-16T04:50:10.258Z,2.50
2023-02-16T04:52:38.484Z,2.40
2023-02-16T04:55:09.652Z,2.30
2023-02-16T04:57:39.036Z,2.20
2023-02-16T05:00:07.892Z,2.10
2023-02-16T05:02:35.915Z,2.10
2023-02-16T05:05:04.085Z,2.10
2023-02-16T05:07:32.435Z,2.10
2023-02-16T05:10:00.546Z,2.10
2023-02-16T05:12:46.016Z,2.20
2023-02-16T05:15:15.413Z,2.30
2023-02-16T05:17:43.416Z,2.30
2023-02-16T05:20:11.868Z,2.20
2023-02-16T05:22:40.082Z,2.00
2023-02-16T05:25:08.512Z,2.00
2023-02-16T05:27:37.039Z,1.90
2023-02-16T05:30:05.145Z,1.90
2023-02-16T05:32:34.584Z,2.00
2023-02-16T05:35:02.637Z,2.00
2023-02-16T05:37:30.601Z,1.90
2023-02-16T05:39:58.657Z,1.80
2023-02-16T05:42:26.909Z,2.00
2023-02-16T05:44:55.022Z,2.00
2023-02-16T05:47:23.041Z,2.10
2023-02-16T05:49:52.421Z,2.10
2023-02-16T05:52:20.458Z,2.10
2023-02-16T05:54:48.538Z,2.10
2023-02-16T05:57:16.631Z,2.20
2023-02-16T05:59:44.613Z,2.30
2023-02-16T06:02:12.638Z,2.40
2023-02-16T06:04:40.620Z,2.30
2023-02-16T06:07:10.203Z,2.40
2023-02-16T06:09:38.185Z,2.30
2023-02-16T06:12:06.449Z,2.20
2023-02-16T06:14:34.480Z,2.20
2023-02-16T06:17:02.515Z,2.10
2023-02-16T06:19:30.973Z,2.20
2023-02-16T06:21:58.958Z,2.20
2023-02-16T06:24:28.866Z,2.30
2023-02-16T06:26:57.045Z,2.20
2023-02-16T06:29:25.257Z,2.30
2023-02-16T06:31:53.303Z,2.20
2023-02-16T06:34:21.484Z,2.20
2023-02-16T06:36:49.702Z,2.20
2023-02-16T06:39:17.941Z,2.10
2023-02-16T06:41:47.418Z,2.10
2023-02-16T06:44:16.390Z,2.20
2023-02-16T06:46:45.302Z,2.30
2023-02-16T06:49:14.286Z,2.50
2023-02-16T06:51:42.524Z,2.40
2023-02-16T06:54:10.672Z,2.50
2023-02-16T06:56:38.770Z,2.50
2023-02-16T06:59:08.237Z,2.60
2023-02-16T07:01:39.445Z,2.60
2023-02-16T07:04:08.058Z,2.60
2023-02-16T07:06:36.506Z,2.60
2023-02-16T07:09:04.816Z,2.70
2023-02-16T07:11:32.903Z,2.70
2023-02-16T07:14:01.477Z,2.70
2023-02-16T07:16:30.852Z,2.70
2023-02-16T07:18:59.137Z,2.60
2023-02-16T07:21:27.205Z,2.50
2023-02-16T07:23:57.952Z,2.40
2023-02-16T07:26:28.932Z,2.40
2023-02-16T07:28:56.971Z,2.40
2023-02-16T07:31:26.596Z,2.40
2023-02-16T07:33:56.305Z,2.40
2023-02-16T07:36:24.647Z,2.40
2023-02-16T07:38:53.603Z,2.40
2023-02-16T07:41:22.419Z,2.40
2023-02-16T07:43:50.390Z,2.50
2023-02-16T07:46:18.487Z,2.40
2023-02-16T07:48:48.299Z,2.40
2023-02-16T07:51:28.324Z,2.40
2023-02-16T07:53:56.501Z,2.40
2023-02-16T07:56:26.188Z,2.40
2023-02-16T07:58:54.627Z,2.50
2023-02-16T08:01:22.985Z,2.40
2023-02-16T08:03:51.541Z,2.10
2023-02-16T08:06:20.221Z,2.20
2023-02-16T08:08:49.687Z,2.20
2023-02-16T08:11:18.764Z,2.20
2023-02-16T08:13:47.244Z,2.30
2023-02-16T08:16:16.352Z,2.40
2023-02-16T08:18:45.292Z,2.30
2023-02-16T08:21:15.177Z,2.40
2023-02-16T08:23:43.533Z,2.30
2023-02-16T08:26:13.025Z,2.30
2023-02-16T08:28:47.064Z,2.20
2023-02-16T08:31:19.802Z,2.20
2023-02-16T08:33:48.439Z,2.20
2023-02-16T08:36:20.603Z,2.20
2023-02-16T08:38:50.887Z,2.20
2023-02-16T08:41:21.204Z,2.40
2023-02-16T08:43:49.664Z,2.40
2023-02-16T08:46:18.544Z,2.40
2023-02-16T08:48:47.468Z,2.40
2023-02-16T08:51:17.552Z,2.60
2023-02-16T08:53:46.613Z,2.60
2023-02-16T08:56:16.758Z,2.70
2023-02-16T08:58:46.585Z,2.70
2023-02-16T09:01:16.385Z,2.80
2023-02-16T09:03:46.294Z,2.80
2023-02-16T09:06:15.659Z,2.90
2023-02-16T09:08:44.691Z,2.90
2023-02-16T09:11:14.203Z,3.00
2023-02-16T09:13:43.336Z,2.90
2023-02-16T09:16:14.159Z,3.00
2023-02-16T09:18:42.346Z,2.90
2023-02-16T09:21:14.043Z,2.90
2023-02-16T09:23:44.697Z,3.00
2023-02-16T09:26:13.010Z,3.00
2023-02-16T09:28:41.392Z,3.20
2023-02-16T09:31:10.490Z,3.50
2023-02-16T09:33:40.310Z,3.80
2023-02-16T09:36:12.371Z,4.00
2023-02-16T09:38:41.176Z,4.10
2023-02-16T09:41:11.771Z,4.40
2023-02-16T09:43:45.490Z,4.60
2023-02-16T09:46:15.399Z,4.90
2023-02-16T09:48:45.647Z,4.90
2023-02-16T09:51:18.903Z,5.00
2023-02-16T09:53:55.260Z,5.10
2023-02-16T09:56:27.290Z,5.10
2023-02-16T09:58:58.416Z,5.40
2023-02-16T10:01:32.120Z,5.70
2023-02-16T10:04:13.273Z,5.90
2023-02-16T10:06:46.820Z,5.90
2023-02-16T10:09:18.397Z,6.00
2023-02-16T10:11:48.891Z,6.20
2023-02-16T10:14:25.085Z,6.20
2023-02-16T10:16:58.233Z,6.20
2023-02-16T10:19:31.422Z,6.60
2023-02-16T10:22:01.274Z,6.80
2023-02-16T10:24:31.013Z,6.90
2023-02-16T10:27:02.345Z,7.10
2023-02-16T10:29:30.665Z,7.30
2023-02-16T10:32:05.361Z,7.50
2023-02-16T10:34:39.772Z,7.80
2023-02-16T10:37:20.695Z,8.00
2023-02-16T10:39:51.985Z,8.10
2023-02-16T10:42:26.219Z,8.10
2023-02-16T10:44:57.158Z,8.20
2023-02-16T10:47:29.598Z,8.40
2023-02-16T10:49:59.354Z,8.70
2023-02-16T10:52:30.597Z,9.00
2023-02-16T10:54:58.747Z,9.20
2023-02-16T10:57:27.699Z,9.30
2023-02-16T10:59:58.076Z,9.30
2023-02-16T11:02:27.059Z,9.40
2023-02-16T11:04:56.987Z,9.60
2023-02-16T11:07:27.411Z,9.80
2023-02-16T11:09:57.327Z,10.10
2023-02-16T11:12:27.957Z,10.30
2023-02-16T11:14:57.841Z,10.60
2023-02-16T11:17:26.201Z,10.70
2023-02-16T11:19:55.348Z,10.90
2023-02-16T11:22:35.708Z,11.10
2023-02-16T11:25:24.103Z,11.10
2023-02-16T11:27:54.398Z,11.20
2023-02-16T11:30:29.444Z,11.40
2023-02-16T11:32:57.594Z,11.60
2023-02-16T11:35:25.698Z,11.80
2023-02-16T11:37:56.058Z,11.80
2023-02-16T11:40:25.788Z,11.80
2023-02-16T11:42:57.383Z,11.80
2023-02-16T11:45:31.360Z,11.80
2023-02-16T11:53:46.417Z,11.60
2023-02-16T11:56:25.559Z,11.60
2023-02-16T11:59:15.690Z,11.60
2023-02-16T12:01:57.894Z,11.60
2023-02-16T12:04:34.471Z,11.70
2023-02-16T12:07:15.657Z,11.80
2023-02-16T12:09:49.871Z,11.90
2023-02-16T12:12:19.882Z,11.90
2023-02-16T12:14:57.555Z,12.00
2023-02-16T12:17:35.310Z,12.20
2023-02-16T12:20:06.993Z,12.30
2023-02-16T12:22:38.625Z,12.40
2023-02-16T12:25:19.851Z,12.50
2023-02-16T12:27:51.670Z,12.60
2023-02-16T12:30:27.357Z,12.50
2023-02-16T12:33:01.338Z,12.60
2023-02-16T12:35:44.757Z,12.70
2023-02-16T12:38:18.399Z,12.70
2023-02-16T12:40:52.173Z,12.70
2023-02-16T12:43:27.806Z,12.70
2023-02-16T12:45:57.618Z,12.80
2023-02-16T12:48:33.005Z,12.70
2023-02-16T12:51:03.134Z,12.80
2023-02-16T12:53:35.574Z,12.80
2023-02-16T12:56:08.461Z,12.80
2023-02-16T12:58:38.769Z,12.80
2023-02-16T13:01:12.340Z,12.90
2023-02-16T13:03:41.528Z,13.00
2023-02-16T13:06:15.829Z,13.10
2023-02-16T13:08:47.036Z,13.10
2023-02-16T13:11:20.192Z,13.30
2023-02-16T13:13:49.689Z,13.40
2023-02-16T13:16:29.627Z,13.80
2023-02-16T13:18:58.950Z,14.00
2023-02-16T13:21:50.821Z,14.30
2023-02-16T13:24:26.504Z,14.30
2023-02-16T13:27:02.248Z,14.20
2023-02-16T13:29:39.498Z,14.20
2023-02-16T13:32:17.426Z,14.20
2023-02-16T13:35:04.929Z,14.30
2023-02-16T13:37:43.383Z,14.20
2023-02-16T13:40:20.806Z,14.10
2023-02-16T13:42:57.677Z,14.10
2023-02-16T13:45:27.911Z,14.00
2023-02-16T13:47:57.568Z,14.00
2023-02-16T13:50:28.432Z,14.00
2023-02-16T13:52:59.994Z,14.00
2023-02-16T13:55:31.323Z,14.00
2023-02-16T13:58:04.631Z,14.00
2023-02-16T14:00:35.000Z,14.00
2023-02-16T14:03:05.450Z,14.00
2023-02-16T14:05:38.426Z,13.90
2023-02-16T14:08:11.008Z,14.00
2023-02-16T14:10:54.214Z,13.90
2023-02-16T14:13:25.685Z,13.90
2023-02-16T14:15:54.812Z,13.90
2023-02-16T14:18:28.027Z,13.80
2023-02-16T14:21:02.108Z,13.60
2023-02-16T14:23:34.680Z,13.70
2023-02-16T14:26:04.069Z,13.70
2023-02-16T14:29:05.646Z,13.70
2023-02-16T14:31:41.282Z,13.60
2023-02-16T14:34:16.112Z,13.70
2023-02-16T14:36:59.110Z,13.70
2023-02-16T14:39:30.273Z,13.80
2023-02-16T14:42:07.846Z,14.00
2023-02-16T14:44:42.071Z,13.90
2023-02-16T14:47:20.499Z,13.80
2023-02-16T14:50:03.773Z,13.80
2023-02-16T14:52:38.793Z,13.70
2023-02-16T14:55:23.335Z,13.70
2023-02-16T14:57:55.310Z,13.70
2023-02-16T15:00:26.606Z,13.80
2023-02-16T15:03:01.791Z,13.80
2023-02-16T15:05:33.079Z,14.00
2023-02-16T15:08:04.403Z,14.00
2023-02-16T15:10:32.962Z,14.00
2023-02-16T15:13:01.185Z,14.10
2023-02-16T15:15:42.068Z,14.10
2023-02-16T15:18:15.589Z,14.10
2023-02-16T15:20:44.285Z,14.00
2023-02-16T15:23:18.928Z,14.00
2023-02-16T15:25:54.516Z,13.80
2023-02-16T15:28:26.219Z,13.70
2023-02-16T15:30:56.368Z,13.60
2023-02-16T15:33:32.581Z,13.60
2023-02-16T15:36:02.089Z,13.60
2023-02-16T15:38:32.168Z,13.70
2023-02-16T15:41:01.801Z,13.70
2023-02-16T15:43:34.120Z,13.80
2023-02-16T15:46:03.412Z,13.90
2023-02-16T15:48:34.133Z,14.00
2023-02-16T15:51:07.283Z,14.00
2023-02-16T15:53:38.212Z,14.00
2023-02-16T15:56:15.430Z,14.10
2023-02-16T15:58:43.644Z,14.10
2023-02-16T16:01:13.995Z,14.00
2023-02-16T16:03:46.697Z,14.00
2023-02-16T16:06:14.988Z,14.10
2023-02-16T16:08:43.283Z,14.10
2023-02-16T16:11:11.822Z,14.10
2023-02-16T16:13:41.834Z,14.00
2023-02-16T16:16:10.188Z,14.00
2023-02-16T16:18:43.965Z,14.00
2023-02-16T16:21:19.186Z,14.00
2023-02-16T16:23:54.814Z,14.10
2023-02-16T16:26:23.594Z,14.10
2023-02-16T16:28:52.361Z,14.20
2023-02-16T16:31:33.169Z,14.30
2023-02-16T16:34:02.464Z,14.20
2023-02-16T16:36:34.242Z,14.20
2023-02-16T16:39:20.089Z,14.20
2023-02-16T16:42:02.583Z,14.10
2023-02-16T16:44:33.199Z,14.20
2023-02-16T16:47:12.735Z,14.20
2023-02-16T16:49:46.984Z,14.20
2023-02-16T16:52:29.721Z,14.20
2023-02-16T16:54:57.952Z,14.10
2023-02-16T16:57:26.104Z,14.20
2023-02-16T16:59:54.137Z,14.20
2023-02-16T17:02:22.564Z,14.20
2023-02-16T17:04:50.667Z,14.20
2023-02-16T17:07:20.415Z,14.10
2023-02-16T17:09:49.411Z,14.00
2023-02-16T17:12:17.889Z,13.80
2023-02-16T17:14:46.226Z,13.80
2023-02-16T17:17:14.853Z,13.70
2023-02-16T17:19:43.098Z,13.70
2023-02-16T17:22:13.393Z,13.60
2023-02-16T17:24:43.537Z,13.70
2023-02-16T17:27:11.855Z,13.80
2023-02-16T17:29:42.813Z,13.80
2023-02-16T17:32:11.110Z,13.70
2023-02-16T17:34:39.585Z,13.70
2023-02-16T17:37:08.744Z,13.70
2023-02-16T17:39:37.134Z,13.90
2023-02-16T17:42:08.753Z,13.80
2023-02-16T17:44:37.131Z,13.80
2023-02-16T17:47:05.514Z,13.70
2023-02-16T17:49:33.782Z,13.50
2023-02-16T17:52:02.080Z,13.50
2023-02-16T17:54:30.304Z,13.40
2023-02-16T17:56:58.839Z,13.30
2023-02-16T17:59:30.144Z,13.40
2023-02-16T18:01:59.455Z,13.60
2023-02-16T18:04:27.807Z,13.60
2023-02-16T18:06:58.630Z,13.50
2023-02-16T18:09:27.148Z,13.30
2023-02-16T18:11:56.081Z,13.20
2023-02-16T18:14:24.265Z,13.20
2023-02-16T18:16:54.225Z,13.20
2023-02-16T18:19:22.531Z,13.10
2023-02-16T18:21:50.925Z,13.10
2023-02-16T18:24:19.135Z,13.20
2023-02-16T18:26:47.588Z,13.30
2023-02-16T18:29:15.853Z,13.40
2023-02-16T18:31:44.158Z,13.30
2023-02-16T18:34:14.046Z,13.10
2023-02-16T18:36:42.441Z,13.00
2023-02-16T18:39:10.849Z,12.80
2023-02-16T18:41:39.242Z,12.80
2023-02-16T18:44:07.557Z,12.80
2023-02-16T18:46:35.631Z,13.00
2023-02-16T18:49:04.067Z,13.00
2023-02-16T18:51:33.899Z,12.90
2023-02-16T18:54:02.076Z,13.10
2023-02-16T18:56:30.386Z,13.30
2023-02-16T18:58:58.683Z,13.40
2023-02-16T19:01:28.763Z,13.40
2023-02-16T19:03:57.416Z,13.20
2023-02-16T19:06:25.678Z,13.20
2023-02-16T19:08:56.493Z,13.10
2023-02-16T19:11:34.940Z,13.00
2023-02-16T19:14:13.840Z,12.90
2023-02-16T19:16:52.498Z,12.90
2023-02-16T19:19:20.987Z,12.70
2023-02-16T19:21:59.315Z,12.60
2023-02-16T19:24:31.115Z,12.60
2023-02-16T19:26:59.334Z,12.70
2023-02-16T19:29:27.732Z,12.80
2023-02-16T19:31:56.273Z,12.90
2023-02-16T19:34:24.892Z,12.80
2023-02-16T19:36:53.153Z,12.60
2023-02-16T19:39:21.567Z,12.50
2023-02-16T19:41:51.447Z,12.50
2023-02-16T19:44:19.797Z,12.40
2023-02-16T19:46:48.334Z,12.40
2023-02-16T19:49:17.322Z,12.30
2023-02-16T19:51:47.827Z,12.20
2023-02-16T19:54:19.223Z,12.20
2023-02-16T19:56:47.415Z,12.30
2023-02-16T19:59:17.426Z,12.30
2023-02-16T20:01:46.008Z,12.50
2023-02-16T20:04:14.294Z,12.40
2023-02-16T20:06:42.574Z,12.30
2023-02-16T20:09:12.373Z,12.20
2023-02-16T20:11:40.562Z,12.10
2023-02-16T20:14:08.638Z,12.00
2023-02-16T20:16:37.972Z,11.90
2023-02-16T20:19:06.031Z,12.00
2023-02-16T20:21:34.086Z,11.90
2023-02-16T20:24:02.906Z,11.80
2023-02-16T20:26:34.007Z,11.70
2023-02-16T20:29:02.783Z,11.70
2023-02-16T20:31:31.733Z,11.80
2023-02-16T20:34:01.373Z,11.90
2023-02-16T20:36:29.427Z,11.90
2023-02-16T20:38:57.458Z,11.80
2023-02-16T20:41:25.459Z,11.70
2023-02-16T20:43:53.596Z,12.00
2023-02-16T20:46:23.615Z,12.00
2023-02-16T20:48:52.026Z,11.90
2023-02-16T20:51:21.659Z,11.90
2023-02-16T20:53:49.802Z,11.90
2023-02-16T20:56:20.535Z,11.90
2023-02-16T20:58:50.007Z,11.80
2023-02-16T21:01:20.701Z,11.80
2023-02-16T21:03:49.023Z,11.80
2023-02-16T21:06:17.389Z,11.80
2023-02-16T21:08:46.954Z,11.80
2023-02-16T21:11:15.097Z,11.80
2023-02-16T21:13:43.475Z,11.80
2023-02-16T21:16:12.265Z,11.80
2023-02-16T21:18:40.755Z,11.80
2023-02-16T21:21:08.953Z,11.70
2023-02-16T21:23:37.202Z,11.70
2023-02-16T21:26:07.019Z,11.70
2023-02-16T21:28:35.461Z,11.60
2023-02-16T21:31:05.396Z,11.70
2023-02-16T21:33:33.779Z,11.60
2023-02-16T21:36:06.507Z,11.50
2023-02-16T21:38:36.055Z,11.40
2023-02-16T21:41:24.293Z,11.40
2023-02-16T21:43:56.775Z,11.50
2023-02-16T21:46:24.993Z,11.40
2023-02-16T21:48:52.138Z,11.50
2023-02-16T21:51:21.449Z,11.40
2023-02-16T21:53:49.553Z,11.50
2023-02-16T21:56:26.489Z,11.60
2023-02-16T21:58:54.958Z,11.60
2023-02-16T22:01:24.677Z,11.70
2023-02-16T22:03:56.325Z,11.80
2023-02-16T22:06:25.325Z,11.70
2023-02-16T22:08:53.534Z,11.70
2023-02-16T22:11:21.607Z,11.70
2023-02-16T22:13:53.453Z,11.70
2023-02-16T22:16:21.601Z,11.70
2023-02-16T22:18:50.094Z,11.70
2023-02-16T22:21:18.346Z,11.70
2023-02-16T22:23:46.354Z,11.70
2023-02-16T22:26:20.301Z,11.70
2023-02-16T22:28:49.022Z,11.70
2023-02-16T22:31:19.141Z,11.70
2023-02-16T22:33:47.452Z,11.70
2023-02-16T22:36:15.992Z,11.70
2023-02-16T22:38:44.688Z,11.60
2023-02-16T22:41:13.366Z,11.70
2023-02-16T22:43:41.476Z,11.80
2023-02-16T22:46:10.674Z,11.80
2023-02-16T22:48:40.412Z,11.80
2023-02-16T22:51:09.276Z,11.80
2023-02-16T22:53:37.469Z,11.90
2023-02-16T22:56:06.499Z,11.90
2023-02-16T22:58:35.048Z,11.80
2023-02-16T23:01:03.102Z,11.80
2023-02-16T23:03:31.784Z,11.80
2023-02-16T23:06:01.153Z,12.00
2023-02-16T23:08:29.280Z,12.00
2023-02-16T23:11:03.202Z,11.90
2023-02-16T23:13:33.063Z,11.80
2023-02-16T23:16:04.421Z,11.90
2023-02-16T23:18:32.974Z,11.90
2023-02-16T23:21:06.947Z,12.10
2023-02-16T23:23:35.109Z,12.00
2023-02-16T23:26:03.339Z,12.00
2023-02-16T23:28:31.785Z,11.90
2023-02-16T23:30:59.950Z,11.80
2023-02-16T23:33:28.100Z,11.80
2023-02-16T23:35:56.133Z,11.80
2023-02-16T23:38:25.818Z,11.80
2023-02-16T23:40:57.781Z,11.70
2023-02-16T23:43:25.893Z,11.80
2023-02-16T23:45:54.041Z,11.90
2023-02-16T23:48:22.470Z,11.90
2023-02-16T23:50:50.565Z,11.90
2023-02-16T23:53:18.988Z,12.00
2023-02-16T23:55:57.216Z,12.10
2023-02-16T23:58:26.511Z,12.00
